createdAt,value
2022-11-09T00:00:00.369Z,37.27
2022-11-09T00:02:04.781Z,37.26
2022-11-09T00:04:09.143Z,37.28
2022-11-09T00:06:13.518Z,37.42
2022-11-09T00:08:18.443Z,37.46
2022-11-09T00:10:22.862Z,37.6
2022-11-09T00:12:27.284Z,37.63
2022-11-09T00:14:31.712Z,37.79
2022-11-09T00:16:36.140Z,37.8
2022-11-09T00:18:40.532Z,37.85
2022-11-09T00:20:49.872Z,37.87
2022-11-09T00:22:54.238Z,37.92
2022-11-09T00:24:58.623Z,38.14
2022-11-09T00:27:02.998Z,38.16
2022-11-09T00:29:07.397Z,38.13
2022-11-09T00:31:11.781Z,38.06
2022-11-09T00:33:16.360Z,38.04
2022-11-09T00:35:20.879Z,37.98
2022-11-09T00:37:25.522Z,37.97
2022-11-09T00:39:29.962Z,37.92
2022-11-09T00:41:34.338Z,37.86
2022-11-09T00:43:39.025Z,37.79
2022-11-09T00:45:43.546Z,37.87
2022-11-09T00:47:47.958Z,37.84
2022-11-09T00:49:52.341Z,37.88
2022-11-09T00:51:56.727Z,37.81
2022-11-09T00:54:01.115Z,37.86
2022-11-09T00:56:05.460Z,37.81
2022-11-09T00:58:09.855Z,37.95
2022-11-09T01:00:14.211Z,37.91
2022-11-09T01:02:18.579Z,37.88
2022-11-09T01:04:22.972Z,37.92
2022-11-09T01:06:27.761Z,37.99
2022-11-09T01:08:32.202Z,37.97
2022-11-09T01:10:36.563Z,37.93
2022-11-09T01:12:40.939Z,38
2022-11-09T01:14:45.334Z,38.07
2022-11-09T01:16:49.779Z,38.09
2022-11-09T01:18:54.270Z,38.06
2022-11-09T01:20:58.600Z,38.11
2022-11-09T01:23:02.979Z,38.16
2022-11-09T01:25:07.358Z,38.21
2022-11-09T01:27:11.749Z,38.16
2022-11-09T01:29:16.097Z,38.21
2022-11-09T01:31:20.439Z,38.22
2022-11-09T01:33:24.920Z,38.27
2022-11-09T01:35:29.265Z,38.31
2022-11-09T01:37:33.649Z,38.41
2022-11-09T01:39:38.144Z,38.61
2022-11-09T01:41:42.476Z,38.39
2022-11-09T01:43:46.871Z,38.49
2022-11-09T01:45:51.250Z,38.47
2022-11-09T01:47:55.638Z,38.46
2022-11-09T01:50:00.028Z,38.47
2022-11-09T01:52:04.395Z,38.54
2022-11-09T01:54:08.795Z,38.61
2022-11-09T01:56:13.152Z,38.65
2022-11-09T01:58:17.514Z,38.6
2022-11-09T02:00:22.015Z,38.57
2022-11-09T02:02:26.357Z,38.62
2022-11-09T02:04:30.789Z,38.81
2022-11-09T02:06:35.418Z,38.93
2022-11-09T02:08:39.772Z,38.99
2022-11-09T02:10:44.133Z,38.91
2022-11-09T02:12:48.471Z,38.75
2022-11-09T02:14:52.864Z,39.02
2022-11-09T02:16:57.255Z,38.87
2022-11-09T02:19:01.619Z,38.85
2022-11-09T02:21:06.004Z,38.8
2022-11-09T02:23:10.341Z,38.83
2022-11-09T02:25:14.719Z,38.79
2022-11-09T02:27:19.061Z,39.02
2022-11-09T02:29:23.409Z,38.91
2022-11-09T02:31:27.903Z,38.93
2022-11-09T02:33:32.283Z,38.95
2022-11-09T02:35:36.690Z,38.95
2022-11-09T02:37:41.035Z,39.05
2022-11-09T02:39:45.413Z,38.96
2022-11-09T02:41:49.793Z,38.94
2022-11-09T02:43:54.159Z,38.96
2022-11-09T02:45:58.555Z,39.02
2022-11-09T02:48:03.094Z,39.02
2022-11-09T02:50:07.451Z,39.06
2022-11-09T02:52:11.863Z,39.14
2022-11-09T02:54:16.200Z,39.12
2022-11-09T02:56:20.591Z,39.14
2022-11-09T02:58:24.932Z,39.21
2022-11-09T03:00:29.391Z,39.24
2022-11-09T03:02:33.786Z,39.25
2022-11-09T03:04:38.129Z,39.41
2022-11-09T03:06:42.735Z,39.31
2022-11-09T03:08:47.130Z,39.35
2022-11-09T03:10:51.504Z,39.41
2022-11-09T03:12:55.857Z,39.29
2022-11-09T03:15:00.198Z,39.33
2022-11-09T03:17:04.606Z,39.38
2022-11-09T03:19:08.960Z,39.32
2022-11-09T03:21:13.355Z,39.16
2022-11-09T03:23:18.570Z,39.19
2022-11-09T03:25:23.166Z,39.29
2022-11-09T03:27:27.564Z,39.33
2022-11-09T03:29:31.897Z,39.23
2022-11-09T03:31:36.270Z,39.3
2022-11-09T03:33:40.646Z,39.36
2022-11-09T03:35:45.008Z,39.31
2022-11-09T03:37:49.725Z,39.44
2022-11-09T03:39:54.169Z,39.4
2022-11-09T03:41:58.577Z,39.38
2022-11-09T03:44:02.940Z,39.38
2022-11-09T03:46:07.304Z,39.28
2022-11-09T03:48:11.689Z,39.26
2022-11-09T03:50:16.059Z,39.35
2022-11-09T03:52:20.410Z,39.31
2022-11-09T03:54:24.773Z,39.23
2022-11-09T03:56:29.124Z,39.27
2022-11-09T03:58:33.542Z,39.34
2022-11-09T04:00:37.890Z,39.34
2022-11-09T04:02:42.268Z,39.24
2022-11-09T04:04:46.695Z,39.28
2022-11-09T04:06:51.346Z,39.23
2022-11-09T04:08:55.791Z,39.29
2022-11-09T04:11:00.178Z,39.22
2022-11-09T04:13:04.551Z,39.24
2022-11-09T04:15:08.920Z,39.27
2022-11-09T04:17:13.310Z,39.26
2022-11-09T04:19:17.639Z,39.27
2022-11-09T04:21:25.831Z,39.36
2022-11-09T04:23:30.198Z,39.38
2022-11-09T04:25:34.559Z,39.35
2022-11-09T04:27:38.957Z,39.48
2022-11-09T04:29:43.402Z,39.46
2022-11-09T04:31:47.769Z,39.43
2022-11-09T04:33:52.168Z,39.41
2022-11-09T04:35:56.572Z,39.46
2022-11-09T04:38:01.043Z,39.38
2022-11-09T04:40:05.405Z,39.44
2022-11-09T04:42:09.773Z,39.41
2022-11-09T04:44:14.076Z,39.49
2022-11-09T04:46:18.391Z,39.52
2022-11-09T04:48:22.702Z,39.39
2022-11-09T04:50:27.047Z,39.44
2022-11-09T04:52:31.381Z,39.41
2022-11-09T04:54:35.644Z,39.36
2022-11-09T04:56:39.957Z,39.37
2022-11-09T04:58:44.310Z,39.31
2022-11-09T05:00:48.642Z,39.29
2022-11-09T05:02:53.005Z,39.37
2022-11-09T05:04:57.352Z,39.26
2022-11-09T05:07:01.917Z,39.21
2022-11-09T05:09:06.332Z,39.26
2022-11-09T05:11:10.642Z,39.25
2022-11-09T05:13:14.970Z,39.23
2022-11-09T05:15:19.277Z,39.23
2022-11-09T05:17:23.563Z,39.23
2022-11-09T05:19:27.874Z,39.29
2022-11-09T05:21:32.137Z,39.31
2022-11-09T05:23:36.485Z,39.26
2022-11-09T05:25:40.792Z,39.23
2022-11-09T05:27:45.128Z,39.29
2022-11-09T05:29:49.448Z,39.31
2022-11-09T05:31:54.560Z,39.27
2022-11-09T05:33:58.884Z,39.44
2022-11-09T05:36:03.205Z,39.32
2022-11-09T05:38:07.518Z,39.31
2022-11-09T05:40:11.842Z,39.39
2022-11-09T05:42:16.139Z,39.28
2022-11-09T05:44:20.439Z,39.34
2022-11-09T05:46:24.770Z,39.34
2022-11-09T05:48:29.209Z,39.32
2022-11-09T05:50:33.521Z,39.33
2022-11-09T05:52:37.867Z,39.33
2022-11-09T05:54:42.191Z,39.4
2022-11-09T05:56:46.487Z,39.49
2022-11-09T05:58:50.848Z,39.48
2022-11-09T06:00:55.171Z,39.52
2022-11-09T06:02:59.553Z,39.59
2022-11-09T06:05:03.929Z,39.61
2022-11-09T06:07:08.531Z,39.59
2022-11-09T06:09:12.973Z,39.61
2022-11-09T06:11:25.663Z,39.82
2022-11-09T06:13:29.997Z,40.19
2022-11-09T06:15:34.532Z,40.41
2022-11-09T06:17:38.860Z,40.29
2022-11-09T06:19:43.148Z,40.45
2022-11-09T06:21:47.463Z,40.43
2022-11-09T06:23:51.777Z,40.45
2022-11-09T06:25:56.165Z,40.64
2022-11-09T06:28:00.560Z,40.61
2022-11-09T06:30:04.919Z,40.86
2022-11-09T06:32:09.283Z,41.32
2022-11-09T06:34:13.669Z,41.55
2022-11-09T06:36:18.077Z,42.18
2022-11-09T06:38:22.428Z,42.28
2022-11-09T06:40:26.830Z,43.04
2022-11-09T06:42:31.451Z,42.73
2022-11-09T06:44:35.902Z,42.99
2022-11-09T06:46:40.318Z,42.72
2022-11-09T06:48:44.710Z,42.79
2022-11-09T06:50:49.103Z,42.52
2022-11-09T06:52:53.452Z,42.58
2022-11-09T06:54:57.846Z,42.69
2022-11-09T06:57:02.196Z,42.59
2022-11-09T06:59:06.562Z,42.52
2022-11-09T07:01:11.665Z,42.5
2022-11-09T07:03:16.027Z,42.4
2022-11-09T07:05:20.394Z,42.46
2022-11-09T07:07:30.017Z,42.34
2022-11-09T07:09:34.410Z,42.35
2022-11-09T07:11:38.911Z,42.42
2022-11-09T07:13:43.533Z,42.4
2022-11-09T07:15:47.905Z,42.34
2022-11-09T07:17:52.405Z,42.32
2022-11-09T07:19:56.789Z,42.21
2022-11-09T07:22:01.229Z,42.29
2022-11-09T07:24:05.621Z,42.28
2022-11-09T07:26:10.043Z,42.22
2022-11-09T07:28:14.419Z,42.45
2022-11-09T07:30:18.830Z,42.36
2022-11-09T07:33:09.518Z,42.3
2022-11-09T07:35:14.119Z,42.17
2022-11-09T07:37:18.510Z,42.21
2022-11-09T07:39:22.894Z,42.25
2022-11-09T07:41:35.740Z,42.21
2022-11-09T07:43:40.089Z,42.14
2022-11-09T07:45:44.472Z,42.15
2022-11-09T07:47:48.861Z,42.14
2022-11-09T07:49:53.233Z,42.04
2022-11-09T07:51:57.721Z,41.86
2022-11-09T07:54:02.072Z,41.78
2022-11-09T07:56:06.513Z,41.77
2022-11-09T07:58:10.902Z,41.81
2022-11-09T08:00:17.758Z,41.77
2022-11-09T08:02:25.730Z,41.67
2022-11-09T08:04:30.143Z,41.7
2022-11-09T08:06:34.758Z,41.7
2022-11-09T08:08:39.248Z,41.54
2022-11-09T08:10:43.635Z,41.54
2022-11-09T08:12:48.054Z,41.53
2022-11-09T08:14:52.456Z,41.47
2022-11-09T08:16:56.886Z,41.49
2022-11-09T08:19:01.302Z,41.51
2022-11-09T08:21:05.656Z,41.47
2022-11-09T08:23:10.176Z,41.45
2022-11-09T08:25:14.701Z,41.45
2022-11-09T08:27:19.072Z,41.44
2022-11-09T08:29:23.448Z,41.45
2022-11-09T08:31:27.862Z,41.42
2022-11-09T08:33:32.356Z,41.4
2022-11-09T08:35:36.704Z,41.33
2022-11-09T08:37:41.133Z,41.34
2022-11-09T08:39:45.550Z,41.36
2022-11-09T08:41:49.957Z,41.36
2022-11-09T08:43:54.369Z,41.28
2022-11-09T08:45:58.773Z,41.28
2022-11-09T08:48:03.132Z,41.22
2022-11-09T08:50:07.520Z,41.32
2022-11-09T08:52:11.930Z,41.22
2022-11-09T08:54:16.326Z,41.41
2022-11-09T08:56:20.730Z,41.57
2022-11-09T08:58:25.554Z,41.3
2022-11-09T09:00:29.939Z,41.26
2022-11-09T09:02:34.334Z,41.25
2022-11-09T09:04:38.732Z,41.24
2022-11-09T09:06:43.266Z,41.19
2022-11-09T09:08:47.882Z,41.11
2022-11-09T09:10:52.282Z,41.08
2022-11-09T09:12:56.715Z,41.11
2022-11-09T09:15:01.124Z,41.15
2022-11-09T09:17:05.533Z,41.14
2022-11-09T09:19:09.909Z,41.12
2022-11-09T09:21:14.418Z,41.09
2022-11-09T09:23:18.883Z,41.09
2022-11-09T09:25:23.415Z,41.03
2022-11-09T09:27:27.884Z,41.06
2022-11-09T09:29:32.277Z,41.01
2022-11-09T09:31:36.651Z,41.06
2022-11-09T09:33:41.058Z,41.05
2022-11-09T09:35:45.483Z,40.93
2022-11-09T09:37:49.876Z,40.96
2022-11-09T09:39:54.264Z,41.04
2022-11-09T09:41:58.633Z,41.04
2022-11-09T09:44:03.046Z,41
2022-11-09T09:46:07.470Z,41.07
2022-11-09T09:48:11.915Z,41.2
2022-11-09T09:50:16.697Z,41.11
2022-11-09T09:52:21.121Z,41.05
2022-11-09T09:54:25.538Z,41.01
2022-11-09T09:56:29.961Z,40.97
2022-11-09T09:58:34.358Z,40.96
2022-11-09T10:00:38.745Z,40.94
2022-11-09T10:02:43.143Z,40.91
2022-11-09T10:04:47.770Z,40.87
2022-11-09T10:06:52.443Z,40.84
2022-11-09T10:08:56.954Z,40.85
2022-11-09T10:11:01.355Z,40.85
2022-11-09T10:13:05.791Z,40.74
2022-11-09T10:15:10.163Z,41.05
2022-11-09T10:17:14.533Z,40.83
2022-11-09T10:19:18.928Z,40.79
2022-11-09T10:21:23.347Z,40.8
2022-11-09T10:23:27.709Z,40.81
2022-11-09T10:26:08.902Z,40.71
2022-11-09T10:28:15.679Z,40.71
2022-11-09T10:30:20.120Z,40.85
2022-11-09T10:32:24.610Z,40.75
2022-11-09T10:34:28.995Z,40.73
2022-11-09T10:36:33.410Z,40.98
2022-11-09T10:38:37.771Z,40.87
2022-11-09T10:40:42.169Z,40.99
2022-11-09T10:42:46.518Z,40.69
2022-11-09T10:44:50.912Z,41.09
2022-11-09T10:46:55.321Z,41.04
2022-11-09T10:48:59.692Z,41.27
2022-11-09T10:51:04.057Z,41.25
2022-11-09T10:53:08.735Z,41.41
2022-11-09T10:55:13.544Z,41.34
2022-11-09T10:57:17.935Z,41.5
2022-11-09T10:59:22.291Z,41.61
2022-11-09T11:01:26.993Z,41.57
2022-11-09T11:03:31.431Z,41.61
2022-11-09T11:05:35.762Z,41.78
2022-11-09T11:07:40.214Z,42.13
2022-11-09T11:09:44.635Z,42.2
2022-11-09T11:11:49.025Z,42.39
2022-11-09T11:13:53.436Z,42.7
2022-11-09T11:15:57.769Z,43.13
2022-11-09T11:18:02.169Z,43.2
2022-11-09T11:20:06.573Z,43.68
2022-11-09T11:22:10.948Z,44.02
2022-11-09T11:24:15.335Z,44.75
2022-11-09T11:26:19.728Z,45.27
2022-11-09T11:28:24.066Z,45.9
2022-11-09T11:30:28.463Z,45.83
2022-11-09T11:32:32.838Z,45.79
2022-11-09T11:35:02.839Z,46.62
2022-11-09T11:37:07.251Z,46.38
2022-11-09T11:39:11.588Z,46.62
2022-11-09T11:41:16.562Z,45.84
2022-11-09T11:43:22.176Z,46.44
2022-11-09T11:45:43.357Z,46.75
2022-11-09T11:47:47.772Z,46.9
2022-11-09T11:49:52.252Z,47.12
2022-11-09T11:51:56.648Z,47.71
2022-11-09T11:54:01.086Z,47.78
2022-11-09T11:56:05.483Z,48.12
2022-11-09T11:58:09.894Z,48.68
2022-11-09T12:00:14.295Z,48.29
2022-11-09T12:02:18.892Z,48.88
2022-11-09T12:04:25.761Z,48.61
2022-11-09T12:06:32.738Z,48.92
2022-11-09T12:08:37.182Z,48.77
2022-11-09T12:10:41.565Z,48.73
2022-11-09T12:12:45.955Z,48.76
2022-11-09T12:14:50.336Z,48.7
2022-11-09T12:16:54.744Z,48.72
2022-11-09T12:18:59.110Z,48.75
2022-11-09T12:21:03.434Z,48.83
2022-11-09T12:23:07.889Z,48.78
2022-11-09T12:25:12.282Z,48.72
2022-11-09T12:27:34.684Z,48.63
2022-11-09T12:29:39.107Z,48.58
2022-11-09T12:31:45.056Z,48.52
2022-11-09T12:33:49.477Z,48.28
2022-11-09T12:35:54.252Z,48.31
2022-11-09T12:37:58.699Z,48.08
2022-11-09T12:40:03.102Z,48.14
2022-11-09T12:42:07.489Z,47.96
2022-11-09T12:44:18.528Z,47.9
2022-11-09T12:46:22.894Z,47.77
2022-11-09T12:48:27.361Z,47.63
2022-11-09T12:50:31.777Z,47.67
2022-11-09T12:52:36.165Z,47.37
2022-11-09T12:54:40.560Z,47.54
2022-11-09T12:56:44.927Z,47.15
2022-11-09T12:58:49.273Z,47.28
2022-11-09T13:00:53.812Z,46.79
2022-11-09T13:02:58.220Z,46.82
2022-11-09T13:05:02.824Z,46.62
2022-11-09T13:07:07.662Z,46.8
2022-11-09T13:09:12.190Z,46.73
2022-11-09T13:11:16.601Z,46.69
2022-11-09T13:13:22.498Z,46.5
2022-11-09T13:15:27.236Z,46.5
2022-11-09T13:17:31.647Z,46.26
2022-11-09T13:19:36.069Z,45.88
2022-11-09T13:21:40.485Z,46.3
2022-11-09T13:24:19.174Z,45.99
2022-11-09T13:26:26.024Z,46.07
2022-11-09T13:28:30.430Z,45.67
2022-11-09T13:30:34.783Z,45.81
2022-11-09T13:32:39.174Z,45.71
2022-11-09T13:34:43.555Z,45.5
2022-11-09T13:36:47.957Z,45.64
2022-11-09T13:38:52.399Z,45.76
2022-11-09T13:40:56.795Z,45.52
2022-11-09T13:43:01.202Z,45.48
2022-11-09T13:45:05.595Z,45.48
2022-11-09T13:47:10.230Z,45.37
2022-11-09T13:49:14.707Z,45.33
2022-11-09T13:51:19.072Z,45.29
2022-11-09T13:53:23.408Z,45.35
2022-11-09T13:55:27.818Z,45.25
2022-11-09T13:57:32.165Z,45.13
2022-11-09T13:59:36.563Z,45.25
2022-11-09T14:01:41.221Z,45.39
2022-11-09T14:03:45.844Z,45.32
2022-11-09T14:05:50.504Z,45.3
2022-11-09T14:07:55.010Z,45.16
2022-11-09T14:09:59.486Z,45.06
2022-11-09T14:12:03.911Z,45.06
2022-11-09T14:14:08.333Z,45.19
2022-11-09T14:16:13.617Z,44.98
2022-11-09T14:18:18.014Z,45.13
2022-11-09T14:20:22.860Z,45.02
2022-11-09T14:22:27.301Z,44.94
2022-11-09T14:24:31.800Z,44.69
2022-11-09T14:26:36.218Z,44.96
2022-11-09T14:28:40.624Z,44.86
2022-11-09T14:30:45.091Z,45
2022-11-09T14:32:49.695Z,44.71
2022-11-09T14:34:54.066Z,44.77
2022-11-09T14:37:04.625Z,44.62
2022-11-09T14:39:09.320Z,44.43
2022-11-09T14:41:13.690Z,44.27
2022-11-09T14:43:18.082Z,44.95
2022-11-09T14:46:06.992Z,44.63
2022-11-09T14:48:11.890Z,44.61
2022-11-09T14:50:16.325Z,44.62
2022-11-09T14:52:20.767Z,44.3
2022-11-09T14:54:25.151Z,44.05
2022-11-09T14:56:29.533Z,44.91
2022-11-09T14:58:34.441Z,45.17
2022-11-09T15:00:46.213Z,44.96
2022-11-09T15:02:50.733Z,44.53
2022-11-09T15:04:55.115Z,44.5
2022-11-09T15:06:59.681Z,45.22
2022-11-09T15:09:04.215Z,45.13
2022-11-09T15:11:08.701Z,45.35
2022-11-09T15:13:13.152Z,45.33
2022-11-09T15:15:17.558Z,45.07
2022-11-09T15:17:21.978Z,45.12
2022-11-09T15:19:26.475Z,45.35
2022-11-09T15:21:30.973Z,45.05
2022-11-09T15:23:35.455Z,44.88
2022-11-09T15:25:39.881Z,44.94
2022-11-09T15:27:44.307Z,44.73
2022-11-09T15:29:48.744Z,44.93
2022-11-09T15:31:53.229Z,45.11
2022-11-09T15:33:57.654Z,44.79
2022-11-09T15:36:02.083Z,44.99
2022-11-09T15:38:06.496Z,44.77
2022-11-09T15:40:10.950Z,44.64
2022-11-09T15:42:15.387Z,44.59
2022-11-09T15:44:20.056Z,44.6
2022-11-09T15:46:24.473Z,44.6
2022-11-09T15:48:28.865Z,44.52
2022-11-09T15:50:33.320Z,44.79
2022-11-09T15:52:37.774Z,44.72
2022-11-09T15:54:48.078Z,44.72
2022-11-09T15:56:52.480Z,44.63
2022-11-09T15:58:56.871Z,44.58
2022-11-09T16:01:01.480Z,44.66
2022-11-09T16:03:05.959Z,44.7
2022-11-09T16:05:10.781Z,44.68
2022-11-09T16:07:15.572Z,44.72
2022-11-09T16:09:19.979Z,44.61
2022-11-09T16:11:24.443Z,44.43
2022-11-09T16:13:28.879Z,44.6
2022-11-09T16:15:33.314Z,44.51
2022-11-09T16:17:37.737Z,44.39
2022-11-09T16:19:42.270Z,44.77
2022-11-09T16:21:46.696Z,45.02
2022-11-09T16:23:58.757Z,45.44
2022-11-09T16:26:03.363Z,45.7
2022-11-09T16:28:07.854Z,45.69
2022-11-09T16:30:12.385Z,46.36
2022-11-09T16:32:16.798Z,45.83
2022-11-09T16:34:21.237Z,45.86
2022-11-09T16:36:25.660Z,45.66
2022-11-09T16:38:30.099Z,45.48
2022-11-09T16:40:34.479Z,45.69
2022-11-09T16:42:38.990Z,45.88
2022-11-09T16:44:43.395Z,46.07
2022-11-09T16:46:48.044Z,46.11
2022-11-09T16:48:52.425Z,46.64
2022-11-09T16:50:56.957Z,46.62
2022-11-09T16:53:01.408Z,46.54
2022-11-09T16:55:05.775Z,46.48
2022-11-09T16:57:10.188Z,46.45
2022-11-09T16:59:14.598Z,46.33
2022-11-09T17:01:25.331Z,46.47
2022-11-09T17:03:29.768Z,46.2
2022-11-09T17:05:34.168Z,46.14
2022-11-09T17:07:44.300Z,46.01
2022-11-09T17:09:48.672Z,45.88
2022-11-09T17:11:53.074Z,45.84
2022-11-09T17:13:57.456Z,46.16
2022-11-09T17:16:01.853Z,45.89
2022-11-09T17:18:06.304Z,45.94
2022-11-09T17:20:10.708Z,45.83
2022-11-09T17:22:15.148Z,45.85
2022-11-09T17:24:19.539Z,46.17
2022-11-09T17:26:23.995Z,45.95
2022-11-09T17:28:28.422Z,45.93
2022-11-09T17:30:32.798Z,45.9
2022-11-09T17:32:37.196Z,46.19
2022-11-09T17:34:41.670Z,45.75
2022-11-09T17:37:16.200Z,45.87
2022-11-09T17:39:20.629Z,46.05
2022-11-09T17:41:25.054Z,45.86
2022-11-09T17:43:29.448Z,45.86
2022-11-09T17:45:33.869Z,45.94
2022-11-09T17:47:38.242Z,46.16
2022-11-09T17:49:42.655Z,46.28
2022-11-09T17:51:47.060Z,46.07
2022-11-09T17:53:51.447Z,46.17
2022-11-09T17:55:55.819Z,46.4
2022-11-09T17:58:00.240Z,46.48
2022-11-09T18:00:04.607Z,46.51
2022-11-09T18:02:09.025Z,46.66
2022-11-09T18:04:13.478Z,46.51
2022-11-09T18:06:18.192Z,46.72
2022-11-09T18:08:23.768Z,46.26
2022-11-09T18:10:28.311Z,46.28
2022-11-09T18:12:32.756Z,46.29
2022-11-09T18:14:37.137Z,46.25
2022-11-09T18:16:41.535Z,47.24
2022-11-09T18:18:45.937Z,46.51
2022-11-09T18:20:50.446Z,46.46
2022-11-09T18:22:54.869Z,46.68
2022-11-09T18:24:59.267Z,46.67
2022-11-09T18:27:03.628Z,46.77
2022-11-09T18:29:08.015Z,46.49
2022-11-09T18:31:12.554Z,46.62
2022-11-09T18:33:16.966Z,46.73
2022-11-09T18:35:21.371Z,46.73
2022-11-09T18:37:25.788Z,46.72
2022-11-09T18:39:30.198Z,46.92
2022-11-09T18:41:34.607Z,45.41
2022-11-09T18:43:39.023Z,43.59
2022-11-09T18:45:43.491Z,42.7
2022-11-09T18:47:47.917Z,42.39
2022-11-09T18:49:52.505Z,41.6
2022-11-09T18:51:56.980Z,41.13
2022-11-09T18:54:01.360Z,40.88
2022-11-09T18:56:08.911Z,40.62
2022-11-09T18:58:13.322Z,40.17
2022-11-09T19:00:17.747Z,40.12
2022-11-09T19:02:22.152Z,40.31
2022-11-09T19:04:26.565Z,40.08
2022-11-09T19:06:31.220Z,40.11
2022-11-09T19:08:35.716Z,39.63
2022-11-09T19:10:40.136Z,40.57
2022-11-09T19:12:44.589Z,41.22
2022-11-09T19:14:49.006Z,41.32
2022-11-09T19:16:53.482Z,41.46
2022-11-09T19:18:57.940Z,43.04
2022-11-09T19:21:02.334Z,42.36
2022-11-09T19:23:06.770Z,42.91
2022-11-09T19:25:11.238Z,43
2022-11-09T19:27:15.628Z,42.76
2022-11-09T19:29:20.072Z,42.73
2022-11-09T19:31:24.491Z,42.68
2022-11-09T19:33:28.896Z,42.57
2022-11-09T19:35:36.178Z,42.89
2022-11-09T19:37:40.624Z,42.86
2022-11-09T19:39:45.587Z,43.06
2022-11-09T19:41:50.020Z,42.98
2022-11-09T19:43:54.757Z,43.09
2022-11-09T19:45:59.249Z,43.97
2022-11-09T19:48:03.703Z,43.17
2022-11-09T19:50:08.187Z,43.33
2022-11-09T19:52:12.597Z,43.62
2022-11-09T19:54:16.963Z,43.74
2022-11-09T19:56:21.433Z,44.35
2022-11-09T19:58:26.239Z,43.7
2022-11-09T20:00:30.605Z,44.46
2022-11-09T20:02:34.995Z,43.73
2022-11-09T20:04:39.432Z,43.76
2022-11-09T20:06:44.036Z,43.95
2022-11-09T20:08:48.489Z,44.02
2022-11-09T20:10:52.967Z,43.98
2022-11-09T20:12:57.343Z,44.08
2022-11-09T20:15:01.746Z,44.37
2022-11-09T20:17:06.293Z,43.36
2022-11-09T20:19:10.715Z,44.17
2022-11-09T20:21:15.084Z,43.37
2022-11-09T20:23:23.713Z,42.75
2022-11-09T20:25:28.144Z,43.07
2022-11-09T20:27:34.576Z,43.09
2022-11-09T20:29:38.960Z,43.21
2022-11-09T20:31:43.338Z,43.3
2022-11-09T20:33:47.736Z,43.36
2022-11-09T20:35:52.122Z,43.46
2022-11-09T20:37:56.623Z,43.66
2022-11-09T20:40:01.013Z,43.67
2022-11-09T20:42:05.450Z,43.82
2022-11-09T20:44:09.879Z,44.07
2022-11-09T20:46:14.299Z,44.41
2022-11-09T20:48:55.792Z,44.73
2022-11-09T20:51:00.516Z,45.11
2022-11-09T20:53:04.894Z,45.24
2022-11-09T20:55:09.257Z,45.4
2022-11-09T20:57:13.676Z,45.48
2022-11-09T20:59:18.074Z,45.48
2022-11-09T21:01:22.771Z,45.41
2022-11-09T21:03:27.207Z,45.51
2022-11-09T21:05:31.580Z,45.3
2022-11-09T21:07:35.982Z,45.22
2022-11-09T21:09:40.330Z,45.2
2022-11-09T21:11:44.726Z,46.04
2022-11-09T21:13:49.104Z,44.81
2022-11-09T21:15:53.529Z,44
2022-11-09T21:17:58.057Z,43.91
2022-11-09T21:20:02.493Z,42.51
2022-11-09T21:22:06.884Z,41.52
2022-11-09T21:24:11.277Z,40.61
2022-11-09T21:26:15.690Z,40.45
2022-11-09T21:28:21.187Z,39.31
2022-11-09T21:30:25.730Z,40.56
2022-11-09T21:32:30.123Z,39.97
2022-11-09T21:34:38.801Z,39.67
2022-11-09T21:36:43.147Z,39.32
2022-11-09T21:38:47.555Z,38.97
2022-11-09T21:40:51.948Z,38.83
2022-11-09T21:42:56.340Z,38.59
2022-11-09T21:45:00.673Z,38.52
2022-11-09T21:47:05.083Z,38.25
2022-11-09T21:49:09.473Z,38.22
2022-11-09T21:51:13.849Z,38.32
2022-11-09T21:53:18.466Z,37.87
2022-11-09T21:55:22.978Z,37.52
2022-11-09T21:57:27.380Z,37.72
2022-11-09T21:59:31.856Z,38.05
2022-11-09T22:01:36.538Z,37.51
2022-11-09T22:03:41.022Z,37.44
2022-11-09T22:05:45.379Z,37.64
2022-11-09T22:07:49.796Z,37.38
2022-11-09T22:10:12.638Z,37.58
2022-11-09T22:12:17.162Z,37.03
2022-11-09T22:14:21.568Z,37.5
2022-11-09T22:16:25.953Z,37.29
2022-11-09T22:18:30.343Z,37.28
2022-11-09T22:20:34.809Z,37.18
2022-11-09T22:22:39.245Z,37.22
2022-11-09T22:24:43.672Z,37.09
2022-11-09T22:26:48.084Z,37.15
2022-11-09T22:28:52.480Z,37.2
2022-11-09T22:30:56.859Z,36.96
2022-11-09T22:33:01.322Z,37.09
2022-11-09T22:35:05.753Z,37.05
2022-11-09T22:37:10.173Z,36.98
2022-11-09T22:39:14.561Z,36.71
2022-11-09T22:41:18.949Z,36.98
2022-11-09T22:43:24.739Z,36.78
2022-11-09T22:45:29.253Z,36.97
2022-11-09T22:47:33.709Z,37
2022-11-09T22:49:38.222Z,36.98
2022-11-09T22:51:42.638Z,37.03
2022-11-09T22:53:47.242Z,36.97
2022-11-09T22:55:51.657Z,37.12
2022-11-09T22:57:56.107Z,37.09
2022-11-09T23:00:00.502Z,37.25
2022-11-09T23:02:05.042Z,37.39
2022-11-09T23:04:09.426Z,37.42
2022-11-09T23:06:13.814Z,37.39
2022-11-09T23:08:18.265Z,37.46
2022-11-09T23:10:22.710Z,37.44
2022-11-09T23:12:27.157Z,37.6
2022-11-09T23:14:31.579Z,37.51
2022-11-09T23:16:36.075Z,37.62
2022-11-09T23:18:40.452Z,37.52
2022-11-09T23:20:44.956Z,37.65
2022-11-09T23:22:49.360Z,37.62
2022-11-09T23:24:53.794Z,37.5
2022-11-09T23:26:58.289Z,37.74
2022-11-09T23:29:02.688Z,37.91
2022-11-09T23:31:07.220Z,37.86
2022-11-09T23:33:11.560Z,37.59
2022-11-09T23:35:16.018Z,37.95
2022-11-09T23:37:20.355Z,38.03
2022-11-09T23:39:24.768Z,37.84
2022-11-09T23:41:31.051Z,37.9
2022-11-09T23:43:35.507Z,38.23
2022-11-09T23:45:39.960Z,38.26
2022-11-09T23:47:44.362Z,38.12
2022-11-09T23:49:48.818Z,38.08
2022-11-09T23:51:53.191Z,38.4
2022-11-09T23:53:57.623Z,38.38
2022-11-09T23:56:02.103Z,38.53
2022-11-09T23:58:06.498Z,38.72
